Flight Track Log - Related Links

Times and Time Zones

All times are in EDT time to prevent confusion due to time zone crossing. See the AWE2312 flight status page for this flight to view local times or setup timezone preferences in your user account.

Time Position Orientation Groundspeed Altitude Reporting Facility
EDT Latitude Longitude Course Direction KTS MPH feet Rate Location/Type
Mon 09:42:23 PM 32.8833 -97.0333 57° Northeast 160 184 1,300  Level Dallas / Fort Worth TRACON
Mon 09:42:59 PM 32.8500 -97.0167 157° South 208 239 2,500 2,643 Climbing Dallas / Fort Worth TRACON
Mon 09:43:47 PM 32.8000 -97.0000 164° South 230 265 5,000 2,950 Climbing Dallas / Fort Worth TRACON
Mon 09:44:59 PM 32.7667 -96.9167 115° Southeast 293 337 8,400 2,273 Climbing Dallas / Fort Worth TRACON
Mon 09:45:00 PM 32.8903 -96.6230 52° Northeast  Level FlightAware Approximate
Mon 09:45:59 PM 32.7667 -96.8167 90° East 313 360 10,000  Level Dallas / Fort Worth TRACON
Mon 09:46:00 PM 32.9622 -96.5107 57° Northeast  Level FlightAware Approximate
Mon 09:47:00 PM 33.0264 -96.3916 57° Northeast  Level FlightAware Approximate
Mon 09:47:15 PM 32.8447 -96.7086 49° Northeast 376 433 11,800  Level Fort Worth Center
Mon 09:48:16 PM 32.9175 -96.5942 53° Northeast 403 464 15,400 3,148 Climbing Fort Worth Center
Mon 09:49:17 PM 32.9875 -96.4836 53° Northeast 427 491 18,200 2,634 Climbing Fort Worth Center
Mon 09:50:19 PM 33.0653 -96.3597 53° Northeast 435 501 20,800 2,341 Climbing Fort Worth Center
Mon 09:51:20 PM 33.1164 -96.2203 66° East 456 525 23,000 1,918 Climbing Fort Worth Center
Mon 09:52:21 PM 33.1528 -96.0950 71° East 465 535 24,700 2,000 Climbing Fort Worth Center
Mon 09:53:23 PM 33.2053 -95.9153 71° East 477 549 27,100 2,098 Climbing Fort Worth Center
Mon 09:54:24 PM 33.2500 -95.7631 71° East 482 555 29,000 1,918 Climbing Fort Worth Center
Mon 09:55:25 PM 33.2933 -95.6119 71° East 482 555 31,000 1,820 Climbing Fort Worth Center
Mon 09:56:26 PM 33.3311 -95.4803 71° East 475 547 32,700 1,415 Climbing Fort Worth Center
Mon 09:57:28 PM 33.3736 -95.3336 71° East 470 541 33,900 1,317 Climbing Fort Worth Center
Mon 09:58:29 PM 33.4236 -95.1572 71° East 469 540 35,400 1,082 Climbing Fort Worth Center
Mon 09:59:30 PM 33.4894 -95.0278 59° Northeast 467 537 36,100 738 Climbing Fort Worth Center
Mon 10:00:31 PM 33.5764 -94.9150 47° Northeast 464 534 36,900 439 Climbing Fort Worth Center
Mon 10:01:33 PM 33.6575 -94.7939 51° Northeast 464 534 37,000 49 Climbing Fort Worth Center
Mon 10:02:34 PM 33.7386 -94.6744 51° Northeast 463 533 37,000  Level Fort Worth Center
Mon 10:03:36 PM 33.8217 -94.5539 50° Northeast 463 533 37,000  Level Fort Worth Center
Mon 10:04:37 PM 33.9008 -94.4331 52° Northeast 462 532 37,000  Level Fort Worth Center
Mon 10:05:38 PM 33.9817 -94.3117 51° Northeast 462 532 37,000  Level Fort Worth Center
Mon 10:06:39 PM 34.0611 -94.1889 52° Northeast 462 532 37,000  Level Fort Worth Center
Mon 10:07:40 PM 34.1397 -94.0725 51° Northeast 456 525 37,000  Level Fort Worth Center
Mon 10:08:42 PM 34.2186 -93.9506 52° Northeast 456 525 37,000  Level Fort Worth Center
Mon 10:09:29 PM 34.2814 -93.8486 53° Northeast 460 529 37,000  Level Memphis Center
Mon 10:10:30 PM 34.3628 -93.7247 51° Northeast 459 528 37,000  Level Memphis Center
Mon 10:11:31 PM 34.4419 -93.6036 52° Northeast 459 528 37,000  Level Memphis Center
Mon 10:12:33 PM 34.5211 -93.4817 52° Northeast 459 528 37,000  Level Memphis Center
Mon 10:13:34 PM 34.6158 -93.3333 52° Northeast 461 531 37,000  Level Memphis Center
Mon 10:14:35 PM 34.6936 -93.2119 52° Northeast 461 531 37,000  Level Memphis Center
Mon 10:15:36 PM 34.7719 -93.0886 52° Northeast 461 531 37,000  Level Memphis Center
Mon 10:16:37 PM 34.8500 -92.9667 52° Northeast 461 531 37,000  Level Memphis Center
Mon 10:17:38 PM 34.9275 -92.8444 52° Northeast 461 531 37,000  Level Memphis Center
Mon 10:18:39 PM 35.0039 -92.7222 53° Northeast 461 531 37,000  Level Memphis Center
Mon 10:19:40 PM 35.0806 -92.5989 53° Northeast 461 531 37,000  Level Memphis Center
Mon 10:20:41 PM 35.1589 -92.4753 52° Northeast 461 531 37,000  Level Memphis Center
Mon 10:21:42 PM 35.2361 -92.3525 52° Northeast 461 531 37,000  Level Memphis Center
Mon 10:22:43 PM 35.3278 -92.2058 53° Northeast 459 528 37,000  Level Memphis Center
Mon 10:23:44 PM 35.4042 -92.0844 52° Northeast 457 526 37,000  Level Memphis Center
Mon 10:24:45 PM 35.4811 -91.9622 52° Northeast 456 525 37,000  Level Memphis Center
Mon 10:25:46 PM 35.5575 -91.8386 53° Northeast 456 525 37,000  Level Memphis Center
Mon 10:26:47 PM 35.6325 -91.7172 53° Northeast 452 520 37,000  Level Memphis Center
Mon 10:27:48 PM 35.7061 -91.5961 53° Northeast 447 514 37,000  Level Memphis Center
Mon 10:28:49 PM 35.7808 -91.4728 53° Northeast 447 514 37,000  Level Memphis Center
Mon 10:29:51 PM 35.8639 -91.3381 53° Northeast 448 516 37,000  Level Memphis Center
Mon 10:30:52 PM 35.9386 -91.2142 53° Northeast 448 516 37,000  Level Memphis Center
Mon 10:31:53 PM 36.0144 -91.0911 53° Northeast 448 516 37,000  Level Memphis Center
Mon 10:32:53 PM 36.0886 -90.9664 54° Northeast 448 516 37,000  Level Memphis Center
Mon 10:33:54 PM 36.1625 -90.8406 54° Northeast 449 517 37,000  Level Memphis Center
Mon 10:34:55 PM 36.2386 -90.7172 53° Northeast 449 517 37,000  Level Memphis Center
Mon 10:35:56 PM 36.3133 -90.5917 54° Northeast 449 517 37,000  Level Memphis Center
Mon 10:36:57 PM 36.3867 -90.4658 54° Northeast 449 517 37,000  Level Memphis Center
Mon 10:37:58 PM 36.4622 -90.3381 54° Northeast 451 519 37,000  Level Memphis Center
Mon 10:38:59 PM 36.5372 -90.2114 54° Northeast 451 519 37,000 -197 Level Memphis Center
Mon 10:40:00 PM 36.6122 -90.0836 54° Northeast 452 520 36,600 -639 Descending Memphis Center
Mon 10:41:01 PM 36.6883 -89.9553 53° Northeast 454 522 35,700 -934 Descending Memphis Center
Mon 10:42:02 PM 36.7639 -89.8250 54° Northeast 455 524 34,700 -984 Descending Memphis Center
Mon 10:43:03 PM 36.8389 -89.6944 54° Northeast 456 525 33,700 -984 Descending Memphis Center
Mon 10:44:04 PM 36.9150 -89.5639 54° Northeast 459 528 32,700 -1,082 Descending Memphis Center
Mon 10:45:05 PM 37.0053 -89.4061 54° Northeast 459 528 31,500 -1,131 Descending Memphis Center
Mon 10:46:06 PM 37.0814 -89.2744 54° Northeast 460 529 30,400 -1,033 Descending Memphis Center
Mon 10:47:07 PM 37.1600 -89.1378 54° Northeast 474 545 29,400 -689 Descending Memphis Center
Mon 10:48:08 PM 37.2400 -88.9953 55° Northeast 490 564 29,000 -197 Descending Memphis Center
Mon 10:49:09 PM 37.3203 -88.8544 54° Northeast 492 566 29,000  Level Memphis Center
Mon 10:50:10 PM 37.3997 -88.7131 55° Northeast 492 566 29,000  Level Memphis Center
Mon 10:51:11 PM 37.4800 -88.5714 54° Northeast 494 568 29,000  Level Memphis Center
Mon 10:52:12 PM 37.5592 -88.4294 55° Northeast 494 568 29,000  Level Memphis Center
Mon 10:53:13 PM 37.6378 -88.2875 55° Northeast 494 568 29,000 -98 Level Memphis Center
Mon 10:54:14 PM 37.7164 -88.1450 55° Northeast 494 568 28,800 -589 Descending Memphis Center
Mon 10:55:05 PM 37.7636 -87.9914 69° East 497 572 27,900 -1,179 Descending Indianapolis Center
Mon 10:56:06 PM 37.8125 -87.8328 69° East 498 573 26,600 -1,377 Descending Indianapolis Center
Mon 10:57:07 PM 37.8650 -87.6733 67° East 496 571 25,100 -1,770 Descending Indianapolis Center
Mon 10:58:08 PM 37.9139 -87.5164 68° East 488 562 23,000 -2,213 Descending Indianapolis Center
Mon 10:59:09 PM 37.9619 -87.3642 68° East 474 545 20,600 -2,146 Descending Indianapolis Center
Mon 11:00:11 PM 38.0100 -87.2164 68° East 462 532 18,600 -1,951 Descending Indianapolis Center
Mon 11:01:12 PM 38.0539 -87.0733 69° East 446 513 16,600 -1,869 Descending Indianapolis Center
Mon 11:02:13 PM 38.0983 -86.9342 68° East 437 503 14,800 -1,869 Descending Indianapolis Center
Mon 11:03:14 PM 38.1489 -86.7708 68° East 427 491 12,800 -1,623 Descending Indianapolis Center
Mon 11:04:15 PM 38.1914 -86.6369 68° East 418 481 11,500 -1,131 Descending Indianapolis Center
Mon 11:05:16 PM 38.2267 -86.5011 72° East 414 476 10,500 -787 Descending Indianapolis Center
Mon 11:06:17 PM 38.2106 -86.3717 99° East 385 443 9,900 -934 Descending Indianapolis Center
Mon 11:07:18 PM 38.1947 -86.2589 100° East 350 403 8,600 -1,230 Descending Indianapolis Center
Mon 11:08:19 PM 38.1806 -86.1506 99° East 317 365 7,400 -1,268 Descending Indianapolis Center
Mon 11:09:21 PM 38.1864 -86.0453 86° East 306 352 6,000 -1,171 Descending Indianapolis Center
Mon 11:10:22 PM 38.2053 -85.9528 75° East 287 330 5,000 -541 Descending Indianapolis Center
Mon 11:11:23 PM 38.2447 -85.8919 50° Northeast 261 300 4,900 -443 Descending Indianapolis Center
Mon 11:12:24 PM 38.3056 -85.9175 342° North 245 282 4,100 -787 Descending Indianapolis Center
Mon 11:13:25 PM 38.3650 -85.9447 340° North 232 267 3,300 -537 Descending Indianapolis Center
Mon 11:14:27 PM 38.4047 -85.8931 46° Northeast 239 275 3,000 -146 Descending Indianapolis Center
Mon 11:15:28 PM 38.3611 -85.8278 130° Southeast 214 246 3,000  Level Indianapolis Center
Mon 11:16:29 PM 38.3156 -85.7919 148° Southeast 203 234 3,000 -393 Level Indianapolis Center
Mon 11:17:30 PM 38.2678 -85.7758 165° South 190 219 2,200 -585 Descending Indianapolis Center
Mon 11:18:32 PM 38.2247 -85.7619 166° South 183 211 1,800 -387 Descending Indianapolis Center

Login

Don't have an account? Register now (free) for customized features, flight alerts, and more!